createdAt,value
2022-12-09T00:04:31.345Z,1.07
2022-12-09T00:09:34.202Z,1.09
2022-12-09T00:14:38.813Z,1.01
2022-12-09T00:19:41.645Z,0.95
2022-12-09T00:24:44.641Z,0.98
2022-12-09T00:29:49.062Z,0.95
2022-12-09T00:34:51.833Z,0.97
2022-12-09T00:39:54.588Z,0.94
2022-12-09T00:44:58.881Z,0.99
2022-12-09T00:50:01.853Z,1.03
2022-12-09T00:55:05.230Z,0.96
2022-12-09T01:00:11.162Z,0.92
2022-12-09T01:05:14.318Z,0.96
2022-12-09T01:10:17.356Z,0.72
2022-12-09T01:15:21.559Z,0.80
2022-12-09T01:20:24.665Z,0.72
2022-12-09T01:25:27.797Z,0.20
2022-12-09T01:30:32.126Z,0.64
2022-12-09T01:35:34.920Z,0.55
2022-12-09T01:40:39.817Z,0.52
2022-12-09T01:45:44.942Z,0.59
2022-12-09T01:50:51.660Z,0.67
2022-12-09T01:55:55.705Z,0.68
2022-12-09T02:01:00.144Z,0.58
2022-12-09T02:06:03.234Z,0.59
2022-12-09T02:11:11.275Z,0.65
2022-12-09T02:16:23.215Z,0.64
2022-12-09T02:21:28.287Z,0.52
2022-12-09T02:26:37.234Z,0.53
2022-12-09T02:31:54.324Z,0.48
2022-12-09T02:37:05.011Z,0.49
2022-12-09T02:42:09.979Z,0.43
2022-12-09T02:47:14.529Z,0.22
2022-12-09T02:52:20.424Z,0.02
2022-12-09T02:57:26.190Z,-0.17
2022-12-09T03:02:31.174Z,-0.71
2022-12-09T03:07:42.118Z,-0.28
2022-12-09T03:12:49.267Z,-0.31
2022-12-09T03:17:54.034Z,-0.87
2022-12-09T03:23:01.413Z,-0.40
2022-12-09T03:28:06.781Z,-0.71
2022-12-09T03:33:10.554Z,-0.63
2022-12-09T03:38:17.844Z,-0.53
2022-12-09T03:43:24.439Z,-0.37
2022-12-09T03:48:27.469Z,-0.25
2022-12-09T03:53:35.570Z,-0.11
2022-12-09T03:58:42.262Z,0.10
2022-12-09T04:03:45.275Z,0.12
2022-12-09T04:08:50.255Z,0.12
2022-12-09T04:13:53.421Z,0.03
2022-12-09T04:18:56.317Z,0.18
2022-12-09T04:24:00.429Z,0.21
2022-12-09T04:29:03.263Z,0.10
2022-12-09T04:34:09.582Z,0.05
2022-12-09T04:39:14.525Z,0.21
2022-12-09T04:44:17.500Z,0.08
2022-12-09T04:49:20.557Z,-0.15
2022-12-09T04:54:24.823Z,-0.05
2022-12-09T04:59:28.913Z,0.04
2022-12-09T05:04:32.038Z,-0.16
2022-12-09T05:09:36.594Z,-0.14
2022-12-09T05:14:39.519Z,-0.11
2022-12-09T05:19:42.609Z,-0.27
2022-12-09T05:24:47.571Z,-0.44
2022-12-09T05:29:50.487Z,-0.12
2022-12-09T05:34:53.382Z,-0.14
2022-12-09T05:39:57.678Z,-0.58
2022-12-09T05:45:00.462Z,-0.12
2022-12-09T05:50:10.963Z,-0.03
2022-12-09T05:55:16.014Z,-0.04
2022-12-09T06:00:19.864Z,0.16
2022-12-09T06:05:26.240Z,0.17
2022-12-09T06:10:31.936Z,0.26
2022-12-09T06:15:35.317Z,0.24
2022-12-09T06:20:40.627Z,0.31
2022-12-09T06:25:46.603Z,0.19
2022-12-09T06:30:49.536Z,0.19
2022-12-09T06:35:52.771Z,0.25
2022-12-09T06:40:57.660Z,0.35
2022-12-09T06:46:00.606Z,0.26
2022-12-09T06:51:03.331Z,0.30
2022-12-09T06:56:12.720Z,0.23
2022-12-09T07:01:18.274Z,0.39
2022-12-09T07:06:26.796Z,0.38
2022-12-09T07:11:31.827Z,0.33
2022-12-09T07:16:35.127Z,0.22
2022-12-09T07:21:38.366Z,0.24
2022-12-09T07:26:43.294Z,0.19
2022-12-09T07:31:47.747Z,0.24
2022-12-09T07:36:50.792Z,0.33
2022-12-09T07:41:56.920Z,0.26
2022-12-09T07:47:04.781Z,0.31
2022-12-09T07:52:07.756Z,0.87
2022-12-09T07:57:12.062Z,2.40
2022-12-09T08:02:14.825Z,2.29
2022-12-09T08:07:17.738Z,2.91
2022-12-09T08:12:22.505Z,1.03
2022-12-09T08:17:26.904Z,1.18
2022-12-09T08:22:30.642Z,0.71
2022-12-09T08:27:35.216Z,0.67
2022-12-09T08:32:38.081Z,0.36
2022-12-09T08:37:41.852Z,0.41
2022-12-09T08:42:45.911Z,0.62
2022-12-09T08:47:49.388Z,0.50
2022-12-09T08:52:52.676Z,0.52
2022-12-09T08:57:58.202Z,0.58
2022-12-09T09:03:01.131Z,0.60
2022-12-09T09:08:04.241Z,0.79
2022-12-09T09:13:08.936Z,0.75
2022-12-09T09:18:11.884Z,0.80
2022-12-09T09:23:15.131Z,0.66
2022-12-09T09:28:19.463Z,0.81
2022-12-09T09:33:22.543Z,0.97
2022-12-09T09:38:25.821Z,0.94
2022-12-09T09:43:32.822Z,0.69
2022-12-09T09:48:37.463Z,0.82
2022-12-09T09:53:41.164Z,0.91
2022-12-09T09:58:53.390Z,1.05
2022-12-09T10:04:01.791Z,0.84
2022-12-09T10:09:06.698Z,0.86
2022-12-09T10:14:16.490Z,1.03
2022-12-09T10:19:33.549Z,0.97
2022-12-09T10:24:40.440Z,1.05
2022-12-09T10:29:54.263Z,1.10
2022-12-09T10:34:57.413Z,1.19
2022-12-09T10:40:05.004Z,1.27
2022-12-09T10:45:13.569Z,1.43
2022-12-09T10:50:28.312Z,1.42
2022-12-09T10:55:34.303Z,1.58
2022-12-09T11:00:38.393Z,1.52
2022-12-09T11:05:42.133Z,1.52
2022-12-09T11:10:49.558Z,1.65
2022-12-09T11:15:59.449Z,1.73
2022-12-09T11:21:04.000Z,1.77
2022-12-09T11:26:11.765Z,1.50
2022-12-09T11:31:35.000Z,1.50
2022-12-09T11:36:43.693Z,1.66
2022-12-09T11:42:06.697Z,1.71
2022-12-09T11:47:13.969Z,1.69
2022-12-09T11:52:25.079Z,1.68
2022-12-09T11:57:34.274Z,1.81
2022-12-09T12:02:42.161Z,1.80
2022-12-09T12:07:48.587Z,1.71
2022-12-09T12:13:00.234Z,1.72
2022-12-09T12:18:06.177Z,1.52
2022-12-09T12:23:16.561Z,1.58
2022-12-09T12:28:43.596Z,1.59
2022-12-09T12:34:23.531Z,1.54
2022-12-09T12:39:34.440Z,1.45
2022-12-09T12:45:01.500Z,1.63
2022-12-09T12:50:28.399Z,1.63
2022-12-09T12:55:44.857Z,1.61
2022-12-09T13:00:56.455Z,1.58
2022-12-09T13:06:01.538Z,1.67
2022-12-09T13:11:08.596Z,1.60
2022-12-09T13:16:17.541Z,1.54
2022-12-09T13:21:22.158Z,1.61
2022-12-09T13:26:31.880Z,1.63
2022-12-09T13:31:36.555Z,1.54
2022-12-09T13:36:42.317Z,1.57
2022-12-09T13:42:03.731Z,1.61
2022-12-09T13:47:17.630Z,1.69
2022-12-09T13:52:41.015Z,1.51
2022-12-09T13:57:48.926Z,1.57
2022-12-09T14:02:54.632Z,1.56
2022-12-09T14:08:01.365Z,1.63
2022-12-09T14:13:20.082Z,1.47
2022-12-09T14:18:33.000Z,1.51
2022-12-09T14:23:38.232Z,1.43
2022-12-09T14:28:58.534Z,1.39
2022-12-09T14:34:01.320Z,1.43
2022-12-09T14:39:24.167Z,1.31
2022-12-09T14:44:31.599Z,1.34
2022-12-09T14:49:37.875Z,1.25
2022-12-09T14:54:49.311Z,1.21
2022-12-09T14:59:55.483Z,1.14
2022-12-09T15:05:00.780Z,1.10
2022-12-09T15:10:08.005Z,0.89
2022-12-09T15:15:14.690Z,0.74
2022-12-09T15:20:23.244Z,0.70
2022-12-09T15:25:27.689Z,0.77
2022-12-09T15:30:33.913Z,0.63
2022-12-09T15:35:36.775Z,0.75
2022-12-09T15:41:01.207Z,0.63
2022-12-09T15:46:04.378Z,0.63
2022-12-09T15:51:08.702Z,0.62
2022-12-09T15:56:15.989Z,0.47
2022-12-09T16:01:21.322Z,0.39
2022-12-09T16:06:26.795Z,0.32
2022-12-09T16:11:38.531Z,0.31
2022-12-09T16:16:45.409Z,0.27
2022-12-09T16:21:48.159Z,0.26
2022-12-09T16:26:53.422Z,0.34
2022-12-09T16:32:19.735Z,0.26
2022-12-09T16:37:23.734Z,0.24
2022-12-09T16:42:36.482Z,0.22
2022-12-09T16:47:42.061Z,0.34
2022-12-09T16:52:44.827Z,0.33
2022-12-09T16:57:49.377Z,0.43
2022-12-09T17:02:54.883Z,0.19
2022-12-09T17:07:57.681Z,0.35
2022-12-09T17:13:02.747Z,0.37
2022-12-09T17:18:05.579Z,0.36
2022-12-09T17:23:08.343Z,0.41
2022-12-09T17:28:12.413Z,0.41
2022-12-09T17:33:15.121Z,0.54
2022-12-09T17:38:17.921Z,0.55
2022-12-09T17:43:22.104Z,0.59
2022-12-09T17:48:24.819Z,0.62
2022-12-09T17:53:27.548Z,0.55
2022-12-09T17:58:31.631Z,0.60
2022-12-09T18:03:54.913Z,0.54
2022-12-09T18:08:57.024Z,0.58
2022-12-09T18:14:01.394Z,0.62
2022-12-09T18:19:04.854Z,0.61
2022-12-09T18:24:08.360Z,0.76
2022-12-09T18:29:13.132Z,0.80
2022-12-09T18:34:16.025Z,0.73
2022-12-09T18:39:19.471Z,0.70
2022-12-09T18:44:23.547Z,0.69
2022-12-09T18:49:28.413Z,0.74
2022-12-09T18:54:32.531Z,0.65
2022-12-09T18:59:36.675Z,0.65
2022-12-09T19:04:39.391Z,0.61
2022-12-09T19:09:42.817Z,0.61
2022-12-09T19:14:46.886Z,0.54
2022-12-09T19:19:49.795Z,0.53
2022-12-09T19:24:52.525Z,0.62
2022-12-09T19:29:56.630Z,0.58
2022-12-09T19:34:59.488Z,0.56
2022-12-09T19:40:02.215Z,0.54
2022-12-09T19:45:12.120Z,0.71
2022-12-09T19:50:17.114Z,0.62
2022-12-09T19:55:20.072Z,0.61
2022-12-09T20:00:24.312Z,0.55
2022-12-09T20:05:27.376Z,0.58
2022-12-09T20:10:30.077Z,0.65
2022-12-09T20:15:37.096Z,0.64
2022-12-09T20:20:44.257Z,0.56
2022-12-09T20:25:49.977Z,0.51
2022-12-09T20:30:54.071Z,0.45
2022-12-09T20:35:58.676Z,0.36
2022-12-09T20:41:03.766Z,0.32
2022-12-09T20:46:09.146Z,0.28
2022-12-09T20:51:14.268Z,0.15
2022-12-09T20:56:17.922Z,0.14
2022-12-09T21:01:23.413Z,0.13
2022-12-09T21:06:30.116Z,0.08
2022-12-09T21:11:32.993Z,0.00
2022-12-09T21:16:39.627Z,-0.06
2022-12-09T21:21:46.593Z,-0.05
2022-12-09T21:26:50.126Z,-0.08
2022-12-09T21:31:54.433Z,-0.18
2022-12-09T21:36:57.194Z,-0.24
2022-12-09T21:41:59.898Z,-0.41
2022-12-09T21:47:05.293Z,-0.33
2022-12-09T21:52:08.950Z,-0.44
2022-12-09T21:57:11.678Z,-0.48
2022-12-09T22:02:15.834Z,-0.55
2022-12-09T22:07:18.550Z,-0.58
2022-12-09T22:12:21.228Z,-0.52
2022-12-09T22:17:25.262Z,-0.67
2022-12-09T22:22:27.994Z,-0.73
2022-12-09T22:27:30.714Z,-0.72
2022-12-09T22:32:40.715Z,-0.75
2022-12-09T22:37:44.411Z,-0.84
2022-12-09T22:42:47.204Z,-0.87
2022-12-09T22:47:51.246Z,-0.94
2022-12-09T22:52:53.934Z,-0.87
2022-12-09T22:57:56.634Z,-0.98
2022-12-09T23:03:00.859Z,-1.11
2022-12-09T23:08:03.690Z,-1.09
2022-12-09T23:13:06.727Z,-1.10
2022-12-09T23:18:10.794Z,-1.23
2022-12-09T23:23:13.495Z,-1.22
2022-12-09T23:28:16.169Z,-1.32
2022-12-09T23:33:20.219Z,-1.43
2022-12-09T23:38:22.946Z,-1.37
2022-12-09T23:43:25.638Z,-1.26
2022-12-09T23:48:29.784Z,-1.23
2022-12-09T23:53:32.724Z,-1.24
2022-12-09T23:58:35.429Z,-1.24
